Time;durP1;ratioP1;P1;durP2;ratioP2;P2;SDS_P1;SDS_P2;PMS_P1;PMS_P2;Temp;Humidity;BMP_temperature;BMP_pressure;BME280_temperature;BME280_humidity;BME280_pressure;Samples;Min_cycle;Max_cycle;Signal;HPM_P1;HPM_P2
2022/11/07 00:02:23;;;;;;;7.18;2.63;;;;;;;;;;5032728;28;20298;-63
2022/11/07 00:04:48;;;;;;;7.50;2.40;;;;;;;;;;5032676;28;20216;-64
2022/11/07 00:07:14;;;;;;;6.78;2.38;;;;;;;;;;5033002;28;20211;-63
2022/11/07 00:09:39;;;;;;;7.18;2.63;;;;;;;;;;5033037;28;20220;-63
2022/11/07 00:12:05;;;;;;;9.15;2.42;;;;;;;;;;5031947;28;20215;-63
2022/11/07 00:14:30;;;;;;;8.60;2.85;;;;;;;;;;5032575;28;20220;-64
2022/11/07 00:16:56;;;;;;;7.35;2.92;;;;;;;;;;5013132;28;20220;-63
2022/11/07 00:19:21;;;;;;;7.47;2.58;;;;;;;;;;5012119;28;20215;-63
2022/11/07 00:21:47;;;;;;;8.48;2.60;;;;;;;;;;5013362;28;20224;-64
2022/11/07 00:24:12;;;;;;;8.23;2.60;;;;;;;;;;5012517;28;20244;-63
2022/11/07 00:26:38;;;;;;;9.52;2.80;;;;;;;;;;5012678;28;20695;-64
2022/11/07 00:29:03;;;;;;;9.38;2.80;;;;;;;;;;5012797;28;20721;-63
2022/11/07 00:31:28;;;;;;;9.80;2.88;;;;;;;;;;5013076;28;20881;-64
2022/11/07 00:33:54;;;;;;;7.32;2.50;;;;;;;;;;5012230;28;20236;-64
2022/11/07 00:36:26;;;;;;;6.82;2.50;;;;;;;;;;5012603;28;20420;-63
2022/11/07 00:38:51;;;;;;;8.32;2.53;;;;;;;;;;5012973;28;20209;-64
2022/11/07 00:41:16;;;;;;;8.30;2.50;;;;;;;;;;5011896;28;20235;-64
2022/11/07 00:43:41;;;;;;;7.65;2.60;;;;;;;;;;5013108;28;20251;-64
2022/11/07 00:46:07;;;;;;;7.72;2.38;;;;;;;;;;5014504;28;20204;-63
2022/11/07 00:48:33;;;;;;;7.43;2.95;;;;;;;;;;5011980;28;20315;-64
2022/11/07 00:51:07;;;;;;;7.93;2.80;;;;;;;;;;5012638;28;20316;-63
2022/11/07 00:53:32;;;;;;;9.20;3.28;;;;;;;;;;5012477;28;20697;-64
2022/11/07 00:55:59;;;;;;;9.05;2.92;;;;;;;;;;5012048;28;20216;-64
2022/11/07 00:58:25;;;;;;;8.27;3.00;;;;;;;;;;5014668;28;20656;-63
2022/11/07 01:00:50;;;;;;;9.13;3.15;;;;;;;;;;5032588;28;20394;-63
2022/11/07 01:06:00;;;;;;;10.20;3.03;;;;;;;;;;5032448;28;20218;-63
2022/11/07 01:08:25;;;;;;;11.90;3.08;;;;;;;;;;5031211;28;20242;-63
2022/11/07 01:10:50;;;;;;;6.53;3.00;;;;;;;;;;5032522;28;20682;-63
2022/11/07 01:13:16;;;;;;;7.85;2.60;;;;;;;;;;5038337;28;20211;-63
2022/11/07 01:15:41;;;;;;;8.15;2.45;;;;;;;;;;5038098;28;20235;-64
2022/11/07 01:18:06;;;;;;;10.00;3.28;;;;;;;;;;5038231;28;20208;-63
2022/11/07 01:20:31;;;;;;;7.53;2.58;;;;;;;;;;5038780;28;20223;-63
2022/11/07 01:22:57;;;;;;;5.63;2.63;;;;;;;;;;5038332;28;20215;-64
2022/11/07 01:25:22;;;;;;;8.70;3.08;;;;;;;;;;5038454;28;20559;-63
2022/11/07 01:27:47;;;;;;;8.13;2.70;;;;;;;;;;5038996;28;20215;-63
2022/11/07 01:30:12;;;;;;;10.45;3.28;;;;;;;;;;5037615;28;20254;-63
2022/11/07 01:32:38;;;;;;;9.57;2.75;;;;;;;;;;5038915;28;20579;-63
2022/11/07 01:35:03;;;;;;;8.40;2.67;;;;;;;;;;5038212;28;20250;-63
2022/11/07 01:37:28;;;;;;;8.88;2.92;;;;;;;;;;5038191;28;20599;-64
2022/11/07 01:39:54;;;;;;;14.15;3.83;;;;;;;;;;5034409;28;20219;-63
2022/11/07 01:42:19;;;;;;;10.43;3.45;;;;;;;;;;5038287;28;20222;-63
2022/11/07 01:44:47;;;;;;;12.02;3.25;;;;;;;;;;5037944;28;20338;-63
2022/11/07 01:47:12;;;;;;;9.25;2.60;;;;;;;;;;5035021;28;20208;-63
2022/11/07 01:49:38;;;;;;;10.30;3.10;;;;;;;;;;5038446;28;20724;-63
2022/11/07 01:52:05;;;;;;;10.80;2.70;;;;;;;;;;5019753;28;20258;-63
2022/11/07 01:54:31;;;;;;;10.95;2.53;;;;;;;;;;5021077;28;20216;-63
2022/11/07 01:56:56;;;;;;;9.27;3.13;;;;;;;;;;5020898;28;20219;-63
2022/11/07 01:59:22;;;;;;;9.50;2.70;;;;;;;;;;5019234;28;20231;-63
2022/11/07 02:01:48;;;;;;;12.90;2.80;;;;;;;;;;5020694;28;20208;-63
2022/11/07 02:04:13;;;;;;;13.02;2.90;;;;;;;;;;5020062;28;20690;-63
2022/11/07 02:06:38;;;;;;;9.85;3.47;;;;;;;;;;5037776;28;20232;-63
2022/11/07 02:09:03;;;;;;;10.02;2.90;;;;;;;;;;5038064;28;20330;-64
2022/11/07 02:11:29;;;;;;;10.70;3.05;;;;;;;;;;5037713;28;20220;-63
2022/11/07 02:13:54;;;;;;;6.47;2.80;;;;;;;;;;5038642;28;20686;-63
2022/11/07 02:16:19;;;;;;;18.52;3.55;;;;;;;;;;5022540;28;20216;-63
2022/11/07 02:18:45;;;;;;;12.43;3.38;;;;;;;;;;5017801;28;20226;-63
2022/11/07 02:21:16;;;;;;;14.65;3.72;;;;;;;;;;5000067;28;20219;-63
2022/11/07 02:23:47;;;;;;;12.45;3.58;;;;;;;;;;4998502;28;20303;-63
2022/11/07 02:26:12;;;;;;;10.13;3.45;;;;;;;;;;5014352;28;20217;-63
2022/11/07 02:28:38;;;;;;;11.82;3.20;;;;;;;;;;4997851;28;20251;-63
2022/11/07 02:31:03;;;;;;;11.68;3.47;;;;;;;;;;5014972;28;20216;-63
2022/11/07 02:33:28;;;;;;;9.30;3.72;;;;;;;;;;5014415;28;20216;-63
2022/11/07 02:35:53;;;;;;;8.98;2.83;;;;;;;;;;5015217;28;20212;-63
2022/11/07 02:38:20;;;;;;;9.88;2.53;;;;;;;;;;5014905;28;20266;-63
2022/11/07 02:40:47;;;;;;;9.15;2.30;;;;;;;;;;5014258;28;20221;-63
2022/11/07 02:43:12;;;;;;;9.25;2.67;;;;;;;;;;5014609;28;20635;-63
2022/11/07 02:45:38;;;;;;;8.85;2.40;;;;;;;;;;4992349;28;20248;-63
2022/11/07 02:48:04;;;;;;;8.95;1.95;;;;;;;;;;5011042;28;20228;-63
2022/11/07 02:50:29;;;;;;;10.73;2.70;;;;;;;;;;5014805;28;20219;-63
2022/11/07 02:52:54;;;;;;;9.27;3.00;;;;;;;;;;5014978;28;20220;-63
2022/11/07 02:55:19;;;;;;;10.63;2.97;;;;;;;;;;5013941;28;20275;-63
2022/11/07 02:57:45;;;;;;;9.65;2.63;;;;;;;;;;5015145;28;20288;-63
2022/11/07 03:00:10;;;;;;;7.18;2.40;;;;;;;;;;5014216;28;20239;-63
2022/11/07 03:02:36;;;;;;;9.73;2.20;;;;;;;;;;4995716;28;20252;-63
2022/11/07 03:05:01;;;;;;;8.63;3.10;;;;;;;;;;4994748;28;20209;-63
2022/11/07 03:07:26;;;;;;;8.32;2.40;;;;;;;;;;4995085;28;20703;-64
2022/11/07 03:09:51;;;;;;;9.70;2.50;;;;;;;;;;4986615;28;20232;-64
2022/11/07 03:12:17;;;;;;;8.88;2.33;;;;;;;;;;4992065;28;20256;-63
2022/11/07 03:14:42;;;;;;;8.70;2.70;;;;;;;;;;4984222;28;20228;-64
2022/11/07 03:17:07;;;;;;;7.60;2.28;;;;;;;;;;4983051;28;20705;-63
2022/11/07 03:19:32;;;;;;;7.45;2.35;;;;;;;;;;4976895;28;20272;-64
2022/11/07 03:21:58;;;;;;;9.20;2.22;;;;;;;;;;4976071;28;20217;-64
2022/11/07 03:24:23;;;;;;;9.73;2.33;;;;;;;;;;4977709;28;20248;-63
2022/11/07 03:26:48;;;;;;;6.85;2.22;;;;;;;;;;4984949;28;20836;-64
2022/11/07 03:29:13;;;;;;;7.85;2.00;;;;;;;;;;4983647;28;20224;-64
2022/11/07 03:31:39;;;;;;;9.98;2.47;;;;;;;;;;4984803;28;20221;-63
2022/11/07 03:34:04;;;;;;;9.93;2.45;;;;;;;;;;4984135;28;20554;-63
2022/11/07 03:36:29;;;;;;;5.68;2.13;;;;;;;;;;4983938;28;20236;-63
2022/11/07 03:38:54;;;;;;;12.35;2.47;;;;;;;;;;4984465;28;20702;-64
2022/11/07 03:41:20;;;;;;;7.85;2.40;;;;;;;;;;4977998;28;20229;-64
2022/11/07 03:43:45;;;;;;;7.72;2.55;;;;;;;;;;4975658;28;20219;-63
2022/11/07 03:46:12;;;;;;;12.02;3.28;;;;;;;;;;4990396;28;20212;-64
2022/11/07 03:48:37;;;;;;;9.57;3.30;;;;;;;;;;4983072;28;20245;-64
2022/11/07 03:51:02;;;;;;;9.40;3.53;;;;;;;;;;4982937;28;20216;-63
2022/11/07 03:53:28;;;;;;;9.18;3.08;;;;;;;;;;4984201;28;20716;-64
2022/11/07 03:55:53;;;;;;;11.00;3.40;;;;;;;;;;4984319;28;20216;-64
2022/11/07 03:58:19;;;;;;;8.20;2.47;;;;;;;;;;4984846;28;20703;-63
2022/11/07 04:00:44;;;;;;;12.30;2.95;;;;;;;;;;5003642;28;20550;-64
2022/11/07 04:03:09;;;;;;;10.30;2.65;;;;;;;;;;4999593;28;20623;-63
2022/11/07 04:05:34;;;;;;;11.20;3.03;;;;;;;;;;4995214;28;20244;-64
2022/11/07 04:08:00;;;;;;;9.55;2.20;;;;;;;;;;4995320;28;20212;-64
2022/11/07 04:10:25;;;;;;;12.05;2.45;;;;;;;;;;4998600;28;20220;-63
2022/11/07 04:18:18;;;;;;;8.02;2.28;;;;;;;;;;5003262;28;20246;-64
2022/11/07 04:20:43;;;;;;;12.73;2.70;;;;;;;;;;5023051;28;20243;-63
2022/11/07 04:23:08;;;;;;;11.93;2.45;;;;;;;;;;5022528;28;20230;-63
2022/11/07 04:28:18;;;;;;;14.13;3.10;;;;;;;;;;5014774;28;20620;-64
2022/11/07 04:30:43;;;;;;;11.20;3.13;;;;;;;;;;5014935;28;20211;-64
2022/11/07 04:33:08;;;;;;;16.70;3.20;;;;;;;;;;5017523;28;20220;-64
2022/11/07 04:35:33;;;;;;;9.93;2.75;;;;;;;;;;5022735;28;20575;-64
2022/11/07 04:37:59;;;;;;;9.57;3.40;;;;;;;;;;5022624;28;20219;-64
2022/11/07 04:40:24;;;;;;;12.18;3.22;;;;;;;;;;5020992;28;20223;-64
2022/11/07 04:42:50;;;;;;;11.65;2.97;;;;;;;;;;5022774;28;20219;-64
2022/11/07 04:45:15;;;;;;;11.00;2.90;;;;;;;;;;5022211;28;20714;-63
2022/11/07 04:47:40;;;;;;;11.73;2.58;;;;;;;;;;5020348;28;20238;-64
2022/11/07 04:50:06;;;;;;;11.35;3.08;;;;;;;;;;5014650;28;20958;-64
2022/11/07 04:52:32;;;;;;;9.93;2.35;;;;;;;;;;5013992;28;20215;-64
2022/11/07 04:54:57;;;;;;;12.40;2.38;;;;;;;;;;5015278;28;20272;-64
2022/11/07 04:57:22;;;;;;;12.32;2.80;;;;;;;;;;5021813;28;20222;-64
2022/11/07 04:59:47;;;;;;;8.63;2.38;;;;;;;;;;5022671;28;20385;-63
2022/11/07 05:02:13;;;;;;;12.20;2.83;;;;;;;;;;5020984;28;20223;-63
2022/11/07 05:04:38;;;;;;;12.43;2.75;;;;;;;;;;5022674;28;20666;-63
2022/11/07 05:07:03;;;;;;;13.05;2.78;;;;;;;;;;5003840;28;20223;-63
2022/11/07 05:09:29;;;;;;;13.48;2.22;;;;;;;;;;5021812;28;20223;-63
2022/11/07 05:11:54;;;;;;;15.30;2.90;;;;;;;;;;5016487;28;20222;-64
2022/11/07 05:14:20;;;;;;;14.32;3.05;;;;;;;;;;5013190;28;20311;-64
2022/11/07 05:16:45;;;;;;;9.95;2.70;;;;;;;;;;5014265;28;20215;-64
2022/11/07 05:19:11;;;;;;;11.70;3.03;;;;;;;;;;5019961;28;20632;-64
2022/11/07 05:21:36;;;;;;;17.02;3.33;;;;;;;;;;5021740;28;20215;-64
2022/11/07 05:24:02;;;;;;;11.95;2.67;;;;;;;;;;5021724;28;20223;-64
2022/11/07 05:26:27;;;;;;;13.18;2.80;;;;;;;;;;5022422;28;20635;-63
2022/11/07 05:28:52;;;;;;;11.70;2.67;;;;;;;;;;5021247;28;20281;-64
2022/11/07 05:31:17;;;;;;;14.32;2.60;;;;;;;;;;5021934;28;20204;-63
2022/11/07 05:33:43;;;;;;;11.63;3.17;;;;;;;;;;5018569;28;20640;-64
2022/11/07 05:36:10;;;;;;;8.98;2.50;;;;;;;;;;5013440;28;20678;-63
2022/11/07 05:38:35;;;;;;;11.63;2.65;;;;;;;;;;5020099;28;20212;-64
2022/11/07 05:41:02;;;;;;;10.35;2.25;;;;;;;;;;5030328;28;21098;-63
2022/11/07 05:43:27;;;;;;;8.57;1.90;;;;;;;;;;5031329;28;20216;-63
2022/11/07 05:45:53;;;;;;;11.70;2.53;;;;;;;;;;5034050;28;20206;-63
2022/11/07 05:48:18;;;;;;;11.70;2.58;;;;;;;;;;5029993;28;20219;-63
2022/11/07 05:50:43;;;;;;;13.65;2.33;;;;;;;;;;5031273;28;20219;-63
2022/11/07 05:53:08;;;;;;;12.02;2.50;;;;;;;;;;5031217;28;20211;-63
2022/11/07 05:55:34;;;;;;;12.82;2.50;;;;;;;;;;5031871;28;20239;-63
2022/11/07 05:57:59;;;;;;;14.27;2.35;;;;;;;;;;5025758;28;20674;-64
2022/11/07 06:00:25;;;;;;;11.40;2.50;;;;;;;;;;5020939;28;20235;-64
2022/11/07 06:02:56;;;;;;;10.95;2.47;;;;;;;;;;5025961;28;20291;-64
2022/11/07 06:05:22;;;;;;;14.68;2.67;;;;;;;;;;5024884;28;20215;-63
2022/11/07 06:07:47;;;;;;;9.18;2.00;;;;;;;;;;5025459;28;20215;-64
2022/11/07 06:10:12;;;;;;;12.13;2.33;;;;;;;;;;5025127;28;20289;-64
2022/11/07 06:12:37;;;;;;;14.65;2.80;;;;;;;;;;5024643;28;20223;-63
2022/11/07 06:15:03;;;;;;;13.70;2.50;;;;;;;;;;5023349;28;20699;-63
2022/11/07 06:17:28;;;;;;;10.90;2.40;;;;;;;;;;5017770;28;20227;-63
2022/11/07 06:19:53;;;;;;;12.02;2.50;;;;;;;;;;5016916;28;20223;-63
2022/11/07 06:22:19;;;;;;;14.13;2.80;;;;;;;;;;5018101;28;20289;-63
2022/11/07 06:24:44;;;;;;;14.15;2.53;;;;;;;;;;5024340;28;20226;-63
2022/11/07 06:27:09;;;;;;;10.20;2.35;;;;;;;;;;5025111;28;20281;-63
2022/11/07 06:29:34;;;;;;;12.48;2.58;;;;;;;;;;5024923;28;20226;-64
2022/11/07 06:32:00;;;;;;;14.55;2.67;;;;;;;;;;5024710;28;20573;-64
2022/11/07 06:34:25;;;;;;;12.45;2.25;;;;;;;;;;5024156;28;20239;-64
2022/11/07 06:36:52;;;;;;;17.00;2.53;;;;;;;;;;5025217;28;21181;-64
2022/11/07 06:39:17;;;;;;;17.13;3.28;;;;;;;;;;5017083;28;20207;-64
2022/11/07 06:41:43;;;;;;;14.13;2.40;;;;;;;;;;5016570;28;20216;-63
2022/11/07 06:44:08;;;;;;;12.57;2.50;;;;;;;;;;5015993;28;20701;-64
2022/11/07 06:46:33;;;;;;;14.02;2.70;;;;;;;;;;5023268;28;20215;-64
2022/11/07 06:48:58;;;;;;;14.57;2.67;;;;;;;;;;5024663;28;20227;-63
2022/11/07 06:51:24;;;;;;;13.05;2.58;;;;;;;;;;5024342;28;20278;-64
2022/11/07 06:53:49;;;;;;;13.25;2.70;;;;;;;;;;5024052;28;20220;-64
2022/11/07 06:56:14;;;;;;;15.90;2.58;;;;;;;;;;5023975;28;20212;-63
2022/11/07 06:58:40;;;;;;;14.55;3.47;;;;;;;;;;5024913;28;20289;-63
2022/11/07 07:01:08;;;;;;;15.00;2.30;;;;;;;;;;5019396;28;20314;-63
2022/11/07 07:03:34;;;;;;;14.40;2.45;;;;;;;;;;5016989;28;20329;-64
2022/11/07 07:06:00;;;;;;;11.27;2.22;;;;;;;;;;5017027;28;20622;-64
2022/11/07 07:08:26;;;;;;;16.42;2.75;;;;;;;;;;5019632;28;20247;-63
2022/11/07 07:10:51;;;;;;;13.77;2.78;;;;;;;;;;5023607;28;20220;-63
2022/11/07 07:13:16;;;;;;;12.82;2.42;;;;;;;;;;5023728;28;20207;-63
2022/11/07 07:15:41;;;;;;;16.20;3.10;;;;;;;;;;5023540;28;20418;-62
2022/11/07 07:18:07;;;;;;;13.52;3.05;;;;;;;;;;5023489;28;20691;-63
2022/11/07 07:20:32;;;;;;;15.27;2.93;;;;;;;;;;5022291;28;20516;-63
2022/11/07 07:22:57;;;;;;;13.98;2.83;;;;;;;;;;5020270;28;20238;-63
2022/11/07 07:25:23;;;;;;;12.95;2.50;;;;;;;;;;5014711;28;20215;-63
2022/11/07 07:27:48;;;;;;;15.32;2.67;;;;;;;;;;5014281;28;20739;-63
2022/11/07 07:30:13;;;;;;;11.93;2.38;;;;;;;;;;5014345;28;20231;-63
2022/11/07 07:32:39;;;;;;;15.88;2.85;;;;;;;;;;5022486;28;20231;-63
2022/11/07 07:35:04;;;;;;;13.23;2.53;;;;;;;;;;5021173;28;20212;-63
2022/11/07 07:37:30;;;;;;;13.48;2.70;;;;;;;;;;5022028;28;20215;-63
2022/11/07 07:39:55;;;;;;;15.43;2.70;;;;;;;;;;5021730;28;20551;-63
2022/11/07 07:42:20;;;;;;;17.98;4.00;;;;;;;;;;5021248;28;20219;-63
2022/11/07 07:44:45;;;;;;;12.07;2.65;;;;;;;;;;5022476;28;20251;-63
2022/11/07 07:47:11;;;;;;;13.80;2.35;;;;;;;;;;5016039;28;20230;-63
2022/11/07 07:49:36;;;;;;;15.48;2.60;;;;;;;;;;5013516;28;20226;-63
2022/11/07 07:52:01;;;;;;;11.02;2.97;;;;;;;;;;5014049;28;20653;-63
2022/11/07 07:54:26;;;;;;;10.18;2.72;;;;;;;;;;5020628;28;20246;-63
2022/11/07 07:56:52;;;;;;;14.35;2.50;;;;;;;;;;5021502;28;20208;-62
2022/11/07 07:59:17;;;;;;;10.07;3.05;;;;;;;;;;5020987;28;20579;-63
2022/11/07 08:01:42;;;;;;;11.45;2.50;;;;;;;;;;5029333;28;20659;-62
2022/11/07 08:04:08;;;;;;;10.57;2.60;;;;;;;;;;5031150;28;20710;-62
2022/11/07 08:06:34;;;;;;;11.65;2.47;;;;;;;;;;5032799;28;20265;-62
2022/11/07 08:08:59;;;;;;;13.65;2.60;;;;;;;;;;5032822;28;20277;-62
2022/11/07 08:11:25;;;;;;;10.52;2.38;;;;;;;;;;5031119;28;20735;-62
2022/11/07 08:13:50;;;;;;;12.15;2.42;;;;;;;;;;5032712;28;20204;-62
2022/11/07 08:16:15;;;;;;;12.73;2.90;;;;;;;;;;5032184;28;20204;-63
2022/11/07 08:18:40;;;;;;;13.60;2.67;;;;;;;;;;5029543;28;20192;-63
2022/11/07 08:21:06;;;;;;;10.80;2.80;;;;;;;;;;5031190;28;20223;-62
2022/11/07 08:23:31;;;;;;;12.98;2.53;;;;;;;;;;5032433;28;20211;-64
2022/11/07 08:25:57;;;;;;;10.77;2.50;;;;;;;;;;5031673;28;20257;-63
2022/11/07 08:28:23;;;;;;;14.00;2.63;;;;;;;;;;5031876;28;20246;-63
2022/11/07 08:30:55;;;;;;;13.00;2.70;;;;;;;;;;5032321;28;20393;-63
2022/11/07 08:33:20;;;;;;;12.07;3.10;;;;;;;;;;5031268;28;20274;-63
2022/11/07 08:35:46;;;;;;;14.57;2.90;;;;;;;;;;5032194;28;20227;-63
2022/11/07 08:38:11;;;;;;;13.00;2.30;;;;;;;;;;5031385;28;20266;-63
2022/11/07 08:40:36;;;;;;;16.00;2.42;;;;;;;;;;5032068;28;20733;-63
2022/11/07 08:43:02;;;;;;;12.52;2.40;;;;;;;;;;5031558;28;20270;-63
2022/11/07 08:45:27;;;;;;;11.75;2.30;;;;;;;;;;5031324;28;20227;-63
2022/11/07 08:47:56;;;;;;;11.32;2.20;;;;;;;;;;5032047;28;20675;-63
2022/11/07 08:50:21;;;;;;;10.68;2.38;;;;;;;;;;5031452;28;20211;-62
2022/11/07 08:52:47;;;;;;;14.00;2.47;;;;;;;;;;5029286;28;20222;-63
2022/11/07 08:55:12;;;;;;;11.95;2.17;;;;;;;;;;5031524;28;20249;-63
2022/11/07 08:57:37;;;;;;;19.08;2.50;;;;;;;;;;5032100;28;20258;-61
2022/11/07 09:00:03;;;;;;;13.43;2.40;;;;;;;;;;5027491;28;20743;-62
2022/11/07 09:02:28;;;;;;;11.45;1.90;;;;;;;;;;5024155;28;20586;-62
2022/11/07 09:04:54;;;;;;;11.32;2.33;;;;;;;;;;5026125;28;20204;-60
2022/11/07 09:07:19;;;;;;;13.85;1.90;;;;;;;;;;5025302;28;20223;-62
2022/11/07 09:09:44;;;;;;;10.73;2.20;;;;;;;;;;5023890;28;20273;-62
2022/11/07 09:12:09;;;;;;;14.20;2.50;;;;;;;;;;5025619;28;20216;-62
2022/11/07 09:14:35;;;;;;;11.35;2.13;;;;;;;;;;5024839;28;20242;-62
2022/11/07 09:17:00;;;;;;;14.25;2.60;;;;;;;;;;5027025;28;20204;-62
2022/11/07 09:19:26;;;;;;;14.90;2.55;;;;;;;;;;5006839;28;20239;-62
2022/11/07 09:21:51;;;;;;;16.92;2.97;;;;;;;;;;5006083;28;20715;-62
2022/11/07 09:24:16;;;;;;;14.63;2.65;;;;;;;;;;5006360;28;20743;-62
2022/11/07 09:26:41;;;;;;;11.27;2.42;;;;;;;;;;5007029;28;20240;-62
2022/11/07 09:29:07;;;;;;;12.07;2.10;;;;;;;;;;5005572;28;20272;-62
2022/11/07 09:31:32;;;;;;;12.23;2.50;;;;;;;;;;5007173;28;20220;-62
2022/11/07 09:33:57;;;;;;;10.32;2.53;;;;;;;;;;5009855;28;20722;-62
2022/11/07 09:36:23;;;;;;;12.48;3.00;;;;;;;;;;5009566;28;20270;-62
2022/11/07 09:38:48;;;;;;;12.27;2.30;;;;;;;;;;5017599;28;20738;-62
2022/11/07 09:41:17;;;;;;;11.35;2.45;;;;;;;;;;5010272;28;20208;-62
2022/11/07 09:43:55;;;;;;;12.05;2.25;;;;;;;;;;4994185;28;20307;-62
2022/11/07 09:46:24;;;;;;;8.85;2.08;;;;;;;;;;5011353;28;20294;-62
2022/11/07 09:48:51;;;;;;;12.65;2.30;;;;;;;;;;5029325;28;20228;-62
2022/11/07 09:51:22;;;;;;;12.30;2.35;;;;;;;;;;5029520;28;20303;-62
2022/11/07 09:53:49;;;;;;;12.05;2.30;;;;;;;;;;5030189;28;20208;-62
2022/11/07 09:56:14;;;;;;;14.60;2.60;;;;;;;;;;5028870;28;20247;-62
2022/11/07 09:58:40;;;;;;;12.25;2.20;;;;;;;;;;5030012;28;20251;-62
2022/11/07 10:01:08;;;;;;;9.00;2.08;;;;;;;;;;5029952;28;20232;-62
2022/11/07 10:03:33;;;;;;;13.23;2.42;;;;;;;;;;5013342;28;20262;-62
2022/11/07 10:06:02;;;;;;;14.48;2.38;;;;;;;;;;5010750;28;20292;-62
2022/11/07 10:08:33;;;;;;;11.23;2.38;;;;;;;;;;4992704;28;20224;-62
2022/11/07 10:10:59;;;;;;;13.55;2.58;;;;;;;;;;5009788;28;20295;-62
2022/11/07 10:13:31;;;;;;;9.88;1.90;;;;;;;;;;5021695;28;20613;-62
2022/11/07 10:16:05;;;;;;;12.43;2.25;;;;;;;;;;5016078;28;20303;-62
2022/11/07 10:18:36;;;;;;;9.88;1.88;;;;;;;;;;4991299;28;20216;-62
2022/11/07 10:21:04;;;;;;;12.55;2.50;;;;;;;;;;5009410;28;20209;-62
2022/11/07 10:23:43;;;;;;;10.82;1.90;;;;;;;;;;4992124;28;20213;-62
2022/11/07 10:26:09;;;;;;;12.15;2.38;;;;;;;;;;4991723;28;20220;-62
2022/11/07 10:28:42;;;;;;;11.35;2.25;;;;;;;;;;5009236;28;20232;-62
2022/11/07 10:31:09;;;;;;;9.90;2.10;;;;;;;;;;4990408;28;20680;-62
2022/11/07 10:33:41;;;;;;;7.38;2.10;;;;;;;;;;5009637;28;20205;-62
2022/11/07 10:36:08;;;;;;;11.82;2.30;;;;;;;;;;5009772;28;20789;-62
2022/11/07 10:38:34;;;;;;;13.70;2.45;;;;;;;;;;4991948;28;20213;-62
2022/11/07 10:40:59;;;;;;;12.18;2.22;;;;;;;;;;4985972;28;20217;-62
2022/11/07 10:43:28;;;;;;;9.85;2.40;;;;;;;;;;4996338;28;20248;-62
2022/11/07 10:45:54;;;;;;;12.25;2.28;;;;;;;;;;5008265;28;20300;-62
2022/11/07 10:48:19;;;;;;;8.70;2.00;;;;;;;;;;5003712;28;20303;-63
2022/11/07 10:50:51;;;;;;;8.50;2.00;;;;;;;;;;5030034;28;20227;-62
2022/11/07 10:53:18;;;;;;;8.05;2.35;;;;;;;;;;5028399;28;20208;-62
2022/11/07 10:55:44;;;;;;;11.75;2.17;;;;;;;;;;5029223;28;20226;-62
2022/11/07 10:58:17;;;;;;;13.48;2.30;;;;;;;;;;5028620;28;20784;-63
2022/11/07 11:00:43;;;;;;;9.32;2.05;;;;;;;;;;5041782;28;20221;-62
2022/11/07 11:03:15;;;;;;;11.18;2.47;;;;;;;;;;5036789;28;20388;-62
2022/11/07 11:05:41;;;;;;;10.77;1.98;;;;;;;;;;5027452;28;20718;-62
2022/11/07 11:08:09;;;;;;;13.38;2.95;;;;;;;;;;5027466;28;20222;-62
2022/11/07 11:10:36;;;;;;;12.65;2.95;;;;;;;;;;5007892;28;20228;-62
2022/11/07 11:13:01;;;;;;;9.57;2.03;;;;;;;;;;5019405;28;20306;-63
2022/11/07 11:15:27;;;;;;;15.80;2.88;;;;;;;;;;5026829;28;20298;-62
2022/11/07 11:17:57;;;;;;;9.38;1.95;;;;;;;;;;5011542;28;20620;-62
2022/11/07 11:20:25;;;;;;;11.45;2.40;;;;;;;;;;5028029;28;20238;-62
2022/11/07 11:22:50;;;;;;;13.98;2.95;;;;;;;;;;5011365;28;20266;-62
2022/11/07 11:25:17;;;;;;;12.00;2.17;;;;;;;;;;5010392;28;20660;-62
2022/11/07 11:27:42;;;;;;;11.32;2.35;;;;;;;;;;5027968;28;20231;-62
2022/11/07 11:30:11;;;;;;;9.25;2.30;;;;;;;;;;5027963;28;20286;-62
2022/11/07 11:32:42;;;;;;;9.90;2.08;;;;;;;;;;5010632;28;20231;-62
2022/11/07 11:35:17;;;;;;;16.48;2.13;;;;;;;;;;5009784;28;20220;-62
2022/11/07 11:37:42;;;;;;;11.10;2.70;;;;;;;;;;5028854;28;20223;-62
2022/11/07 11:40:10;;;;;;;13.05;2.70;;;;;;;;;;5010386;28;20289;-62
2022/11/07 11:42:41;;;;;;;12.80;2.42;;;;;;;;;;5006476;28;20743;-62
2022/11/07 11:45:22;;;;;;;10.02;2.00;;;;;;;;;;5023470;28;20216;-62
2022/11/07 11:47:51;;;;;;;11.00;2.38;;;;;;;;;;5022717;28;20304;-62
2022/11/07 11:50:17;;;;;;;11.88;2.20;;;;;;;;;;5007272;28;20244;-62
2022/11/07 11:52:42;;;;;;;12.88;2.53;;;;;;;;;;5011281;28;20235;-62
2022/11/07 11:55:11;;;;;;;12.20;2.47;;;;;;;;;;5017193;28;20295;-62
2022/11/07 11:57:37;;;;;;;14.48;2.78;;;;;;;;;;5027675;28;20740;-62
2022/11/07 12:00:03;;;;;;;13.32;2.65;;;;;;;;;;5038145;28;20223;-62
2022/11/07 12:02:40;;;;;;;10.85;2.45;;;;;;;;;;5046222;28;20230;-62
2022/11/07 12:05:08;;;;;;;12.38;2.38;;;;;;;;;;5045759;28;20221;-62
2022/11/07 12:07:50;;;;;;;8.85;1.98;;;;;;;;;;5047486;28;20225;-62
2022/11/07 12:10:37;;;;;;;11.35;2.22;;;;;;;;;;5044632;28;20227;-62
2022/11/07 12:13:06;;;;;;;13.32;3.10;;;;;;;;;;5033988;28;20663;-62
2022/11/07 12:15:34;;;;;;;12.75;2.65;;;;;;;;;;5027421;28;20278;-62
2022/11/07 12:18:04;;;;;;;13.82;3.05;;;;;;;;;;5028671;28;20243;-62
2022/11/07 12:20:31;;;;;;;13.32;2.63;;;;;;;;;;5015955;28;20214;-62
2022/11/07 12:23:17;;;;;;;14.77;2.60;;;;;;;;;;5046796;28;20261;-62
2022/11/07 12:25:45;;;;;;;13.13;2.80;;;;;;;;;;5047059;28;20219;-62
2022/11/07 12:28:11;;;;;;;13.38;2.42;;;;;;;;;;5046648;28;20233;-62
2022/11/07 12:30:43;;;;;;;16.75;2.97;;;;;;;;;;5031058;28;20762;-62
2022/11/07 12:33:13;;;;;;;12.75;2.35;;;;;;;;;;5026410;28;20805;-62
2022/11/07 12:35:43;;;;;;;10.55;2.20;;;;;;;;;;5026522;28;20269;-62
2022/11/07 12:38:18;;;;;;;9.70;2.05;;;;;;;;;;5026345;28;20219;-64
2022/11/07 12:40:49;;;;;;;14.15;2.90;;;;;;;;;;5026704;28;20220;-62
2022/11/07 12:43:18;;;;;;;12.25;2.40;;;;;;;;;;5027104;28;20555;-62
2022/11/07 12:45:47;;;;;;;10.25;2.63;;;;;;;;;;5025015;28;20559;-62
2022/11/07 12:48:17;;;;;;;13.20;2.35;;;;;;;;;;5025712;28;20227;-62
2022/11/07 12:50:46;;;;;;;14.10;2.45;;;;;;;;;;5027071;28;20219;-62
2022/11/07 12:53:15;;;;;;;10.98;2.45;;;;;;;;;;5025182;28;20269;-62
2022/11/07 12:55:41;;;;;;;15.60;2.92;;;;;;;;;;5027275;28;20578;-62
2022/11/07 12:58:11;;;;;;;11.48;3.08;;;;;;;;;;5025936;28;20283;-62
2022/11/07 13:00:37;;;;;;;8.68;1.95;;;;;;;;;;5027481;28;20722;-62
2022/11/07 13:03:12;;;;;;;16.23;2.78;;;;;;;;;;5042565;28;20307;-62
2022/11/07 13:05:38;;;;;;;10.00;2.35;;;;;;;;;;5022244;28;20294;-62
2022/11/07 13:08:09;;;;;;;16.27;2.90;;;;;;;;;;5026671;28;20718;-62
2022/11/07 13:10:34;;;;;;;15.40;3.08;;;;;;;;;;4997238;28;20216;-62
2022/11/07 13:13:01;;;;;;;12.40;2.22;;;;;;;;;;5006437;28;20275;-62
2022/11/07 13:15:27;;;;;;;15.93;3.80;;;;;;;;;;5020757;28;20717;-62
2022/11/07 13:17:52;;;;;;;13.52;2.53;;;;;;;;;;5022695;28;20305;-62
2022/11/07 13:20:20;;;;;;;12.60;2.90;;;;;;;;;;5030134;28;20302;-62
2022/11/07 13:22:46;;;;;;;15.27;3.45;;;;;;;;;;5029758;28;20203;-62
2022/11/07 13:25:13;;;;;;;13.07;2.45;;;;;;;;;;5025198;28;20254;-63
2022/11/07 13:27:39;;;;;;;13.70;3.03;;;;;;;;;;5023687;28;20226;-62
2022/11/07 13:30:12;;;;;;;9.52;2.20;;;;;;;;;;5025234;28;20220;-62
2022/11/07 13:32:38;;;;;;;11.65;2.40;;;;;;;;;;5025761;28;20223;-62
2022/11/07 13:35:05;;;;;;;13.15;2.70;;;;;;;;;;5025423;28;20254;-62
2022/11/07 13:37:31;;;;;;;10.10;2.63;;;;;;;;;;5026196;28;20239;-62
2022/11/07 13:39:59;;;;;;;12.30;2.78;;;;;;;;;;5033547;28;20578;-62
2022/11/07 13:42:25;;;;;;;12.35;3.10;;;;;;;;;;5023560;28;20216;-62
2022/11/07 13:44:51;;;;;;;10.18;2.55;;;;;;;;;;5026483;28;20215;-62
2022/11/07 13:47:19;;;;;;;13.88;2.42;;;;;;;;;;5024443;28;20212;-62
2022/11/07 13:49:45;;;;;;;11.00;2.53;;;;;;;;;;5004292;28;20271;-62
2022/11/07 13:52:15;;;;;;;14.13;2.53;;;;;;;;;;5023024;28;20781;-62
2022/11/07 13:55:10;;;;;;;10.95;2.58;;;;;;;;;;5005232;28;20664;-62
2022/11/07 13:57:39;;;;;;;12.82;3.00;;;;;;;;;;5025779;28;20567;-62
2022/11/07 14:00:05;;;;;;;12.65;3.38;;;;;;;;;;5008224;28;20311;-62
2022/11/07 14:02:31;;;;;;;15.15;3.08;;;;;;;;;;5026161;28;20665;-62
2022/11/07 14:05:00;;;;;;;10.45;2.53;;;;;;;;;;5026576;28;20219;-63
2022/11/07 14:07:25;;;;;;;14.02;2.80;;;;;;;;;;5026170;28;20277;-62
2022/11/07 14:09:54;;;;;;;11.63;2.90;;;;;;;;;;5025109;28;20231;-62
2022/11/07 14:12:20;;;;;;;13.55;3.17;;;;;;;;;;5025049;28;20204;-62
2022/11/07 14:14:46;;;;;;;10.40;2.30;;;;;;;;;;5026371;28;20762;-62
2022/11/07 14:17:12;;;;;;;12.75;3.15;;;;;;;;;;5025443;28;20298;-62
2022/11/07 14:19:38;;;;;;;13.20;2.88;;;;;;;;;;5008081;28;20764;-62
2022/11/07 14:22:03;;;;;;;13.30;2.95;;;;;;;;;;5028800;28;20220;-62
2022/11/07 14:24:31;;;;;;;18.35;4.35;;;;;;;;;;5028479;28;20208;-62
2022/11/07 14:26:58;;;;;;;14.20;3.17;;;;;;;;;;5028852;28;20216;-62
2022/11/07 14:29:23;;;;;;;10.77;3.17;;;;;;;;;;5028617;28;20222;-62
2022/11/07 14:31:49;;;;;;;12.38;3.60;;;;;;;;;;5028647;28;20212;-62
2022/11/07 14:34:16;;;;;;;13.50;3.55;;;;;;;;;;5029700;28;20215;-62
2022/11/07 14:36:46;;;;;;;14.68;3.78;;;;;;;;;;5030542;28;20224;-62
2022/11/07 14:39:12;;;;;;;10.43;3.38;;;;;;;;;;5028993;28;20286;-62
2022/11/07 14:41:38;;;;;;;12.45;3.13;;;;;;;;;;5028731;28;20760;-62